createdAt,value
2019-04-10T00:00:34.999Z,1.80
2019-04-10T00:03:04.443Z,1.53
2019-04-10T00:05:33.951Z,1.70
2019-04-10T00:08:08.131Z,2.40
2019-04-10T00:10:38.313Z,2.60
2019-04-10T00:13:07.530Z,3.03
2019-04-10T00:15:38.488Z,1.80
2019-04-10T00:18:08.211Z,2.47
2019-04-10T00:20:38.524Z,2.07
2019-04-10T00:23:08.977Z,1.60
2019-04-10T00:25:39.238Z,2.20
2019-04-10T00:28:11.609Z,3.83
2019-04-10T00:30:43.041Z,1.67
2019-04-10T00:33:14.124Z,2.63
2019-04-10T00:35:43.747Z,2.20
2019-04-10T00:38:15.691Z,3.53
2019-04-10T00:40:45.864Z,1.90
2019-04-10T00:43:19.038Z,2.50
2019-04-10T00:45:50.061Z,2.30
2019-04-10T00:48:20.663Z,1.60
2019-04-10T00:50:49.354Z,4.20
2019-04-10T00:53:21.220Z,4.13
2019-04-10T00:55:50.334Z,4.03
2019-04-10T00:58:19.110Z,2.07
2019-04-10T01:00:50.108Z,2.13
2019-04-10T01:03:29.762Z,2.13
2019-04-10T01:05:58.424Z,4.10
2019-04-10T01:08:30.734Z,1.90
2019-04-10T01:11:03.023Z,2.23
2019-04-10T01:13:36.872Z,3.20
2019-04-10T01:16:09.952Z,2.10
2019-04-10T01:18:39.508Z,2.33
2019-04-10T01:21:11.007Z,2.30
2019-04-10T01:23:39.605Z,2.70
2019-04-10T01:26:08.939Z,2.33
2019-04-10T01:28:40.820Z,3.43
2019-04-10T01:31:09.344Z,3.13
2019-04-10T01:33:39.399Z,2.30
2019-04-10T01:36:08.920Z,2.83
2019-04-10T01:38:39.791Z,2.27
2019-04-10T01:41:08.188Z,2.53
2019-04-10T01:43:37.151Z,2.50
2019-04-10T01:46:06.405Z,2.93
2019-04-10T01:48:34.819Z,3.30
2019-04-10T01:51:03.509Z,2.50
2019-04-10T01:53:31.940Z,2.50
2019-04-10T01:56:00.349Z,2.20
2019-04-10T01:58:29.809Z,2.67
2019-04-10T02:01:01.787Z,3.20
2019-04-10T02:03:30.573Z,2.70
2019-04-10T02:06:01.003Z,2.90
2019-04-10T02:08:29.842Z,2.97
2019-04-10T02:10:58.642Z,3.53
2019-04-10T02:13:27.614Z,3.07
2019-04-10T02:15:56.669Z,3.13
2019-04-10T02:18:25.508Z,4.53
2019-04-10T02:20:53.942Z,3.23
2019-04-10T02:23:22.645Z,5.30
2019-04-10T02:25:51.311Z,3.63
2019-04-10T02:28:20.734Z,3.30
2019-04-10T02:30:50.143Z,3.50
2019-04-10T02:33:20.861Z,3.80
2019-04-10T02:35:49.287Z,3.87
2019-04-10T02:38:35.756Z,3.87
2019-04-10T02:40:57.520Z,3.37
2019-04-10T02:43:27.309Z,3.70
2019-04-10T02:45:57.717Z,4.40
2019-04-10T02:48:27.578Z,3.63
2019-04-10T02:50:57.619Z,3.93
2019-04-10T02:53:27.634Z,4.77
2019-04-10T02:55:58.017Z,4.53
2019-04-10T02:58:26.490Z,4.47
2019-04-10T03:00:59.058Z,4.77
2019-04-10T03:03:27.683Z,4.33
2019-04-10T03:05:58.563Z,4.87
2019-04-10T03:08:40.966Z,4.67
2019-04-10T03:11:03.536Z,4.13
2019-04-10T03:13:27.746Z,5.10
2019-04-10T03:15:57.803Z,4.43
2019-04-10T03:18:26.291Z,4.60
2019-04-10T03:20:56.505Z,5.07
2019-04-10T03:23:25.969Z,5.53
2019-04-10T03:25:56.001Z,4.70
2019-04-10T03:28:27.763Z,4.97
2019-04-10T03:31:02.256Z,5.27
2019-04-10T03:33:36.023Z,5.33
2019-04-10T03:36:05.306Z,7.83
2019-04-10T03:38:49.934Z,4.90
2019-04-10T03:41:09.967Z,5.53
2019-04-10T03:43:39.809Z,5.30
2019-04-10T03:46:10.894Z,5.07
2019-04-10T03:48:41.026Z,5.27
2019-04-10T03:51:12.325Z,5.90
2019-04-10T03:53:42.671Z,5.40
2019-04-10T03:56:15.780Z,6.30
2019-04-10T03:58:47.481Z,5.87
2019-04-10T04:01:19.866Z,6.20
2019-04-10T04:03:51.167Z,5.80
2019-04-10T04:06:19.731Z,5.80
2019-04-10T04:09:00.039Z,5.87
2019-04-10T04:11:19.696Z,5.73
2019-04-10T04:13:48.156Z,6.37
2019-04-10T04:16:17.488Z,6.20
2019-04-10T04:18:49.181Z,6.07
2019-04-10T04:21:21.121Z,5.27
2019-04-10T04:23:51.357Z,5.73
2019-04-10T04:26:21.243Z,5.53
2019-04-10T04:28:49.774Z,5.77
2019-04-10T04:31:18.224Z,5.53
2019-04-10T04:33:46.935Z,6.10
2019-04-10T04:36:18.261Z,6.07
2019-04-10T04:38:46.932Z,6.00
2019-04-10T04:41:21.009Z,5.93
2019-04-10T04:43:50.323Z,6.40
2019-04-10T04:46:18.734Z,6.03
2019-04-10T04:48:48.883Z,6.17
2019-04-10T04:51:19.633Z,7.23
2019-04-10T04:53:48.324Z,6.70
2019-04-10T04:56:18.228Z,6.10
2019-04-10T04:58:47.866Z,6.37
2019-04-10T05:01:18.989Z,7.00
2019-04-10T05:03:50.538Z,6.47
2019-04-10T05:06:22.310Z,6.67
2019-04-10T05:08:50.746Z,7.20
2019-04-10T05:11:20.466Z,6.60
2019-04-10T05:13:51.767Z,7.00
2019-04-10T05:16:22.684Z,7.00
2019-04-10T05:18:54.120Z,6.83
2019-04-10T05:21:25.268Z,6.83
2019-04-10T05:23:57.500Z,7.00
2019-04-10T05:26:25.874Z,7.00
2019-04-10T05:28:54.955Z,7.10
2019-04-10T05:31:23.542Z,7.07
2019-04-10T05:33:51.948Z,7.03
2019-04-10T05:36:22.329Z,7.63
2019-04-10T05:38:52.860Z,7.30
2019-04-10T05:41:25.924Z,6.47
2019-04-10T05:43:55.003Z,7.13
2019-04-10T05:46:25.083Z,8.10
2019-04-10T05:48:58.349Z,7.67
2019-04-10T05:51:28.961Z,8.07
2019-04-10T05:54:14.988Z,14.20
2019-04-10T05:56:54.689Z,7.73
2019-04-10T05:59:32.519Z,12.93
2019-04-10T06:02:11.083Z,11.23
2019-04-10T06:04:49.725Z,9.77
2019-04-10T06:07:30.294Z,8.80
2019-04-10T06:13:02.620Z,8.53
2019-04-10T06:15:47.564Z,10.23
2019-04-10T06:18:17.233Z,7.93
2019-04-10T06:20:47.334Z,9.07
2019-04-10T06:26:25.843Z,7.63
2019-04-10T06:31:42.981Z,8.07
2019-04-10T06:34:40.867Z,7.50
2019-04-10T06:38:27.047Z,7.77
2019-04-10T06:40:24.260Z,8.13
2019-04-10T06:43:08.589Z,8.27
2019-04-10T06:45:56.051Z,7.13
2019-04-10T06:51:13.171Z,14.10
2019-04-10T06:54:05.494Z,9.77
2019-04-10T06:57:22.947Z,14.20
2019-04-10T07:00:05.027Z,9.97
2019-04-10T07:02:39.804Z,13.70
2019-04-10T07:05:11.933Z,11.73
2019-04-10T07:07:50.778Z,10.10
2019-04-10T07:10:26.027Z,11.17
2019-04-10T07:12:51.333Z,14.40
2019-04-10T07:15:24.096Z,13.37
2019-04-10T07:17:55.902Z,8.67
2019-04-10T07:20:34.785Z,8.90
2019-04-10T07:23:28.576Z,12.60
2019-04-10T07:25:58.345Z,10.70
2019-04-10T07:28:27.802Z,11.17
2019-04-10T07:31:07.236Z,9.03
2019-04-10T07:33:34.996Z,10.50
2019-04-10T07:36:10.910Z,8.23
2019-04-10T07:38:41.324Z,9.03
2019-04-10T07:41:29.428Z,10.70
2019-04-10T07:44:05.800Z,8.63
2019-04-10T07:46:32.866Z,10.83
2019-04-10T07:49:01.294Z,9.87
2019-04-10T07:51:29.856Z,8.30
2019-04-10T07:53:59.700Z,8.43
2019-04-10T07:56:28.298Z,10.27
2019-04-10T07:58:57.023Z,9.07
2019-04-10T08:01:26.358Z,8.63
2019-04-10T08:03:55.650Z,8.50
2019-04-10T08:06:25.561Z,8.70
2019-04-10T08:08:55.509Z,11.00
2019-04-10T08:11:29.697Z,8.30
2019-04-10T08:14:01.147Z,10.37
2019-04-10T08:16:32.927Z,8.27
2019-04-10T08:19:10.387Z,8.73
2019-04-10T08:21:42.376Z,9.57
2019-04-10T08:24:14.270Z,9.80
2019-04-10T08:26:45.342Z,9.23
2019-04-10T08:29:16.198Z,8.37
2019-04-10T08:32:01.593Z,8.60
2019-04-10T08:34:33.629Z,8.93
2019-04-10T08:37:03.743Z,8.77
2019-04-10T08:39:46.535Z,9.17
2019-04-10T08:45:22.159Z,8.00
2019-04-10T08:47:57.475Z,8.07
2019-04-10T08:50:30.257Z,10.47
2019-04-10T08:52:58.635Z,8.20
2019-04-10T08:55:30.910Z,8.57
2019-04-10T08:58:02.884Z,8.03
2019-04-10T09:00:34.454Z,9.20
2019-04-10T09:03:05.269Z,8.07
2019-04-10T09:05:47.041Z,9.13
2019-04-10T09:08:22.599Z,11.83
2019-04-10T09:11:14.700Z,9.23
2019-04-10T09:13:52.790Z,7.77
2019-04-10T09:16:44.913Z,8.03
2019-04-10T09:19:22.227Z,8.57
2019-04-10T09:24:56.482Z,8.13
2019-04-10T09:27:29.478Z,8.40
2019-04-10T09:30:06.656Z,10.00
2019-04-10T09:32:39.236Z,8.17
2019-04-10T09:35:14.896Z,10.10
2019-04-10T09:37:50.838Z,8.57
2019-04-10T09:40:22.456Z,9.27
2019-04-10T09:42:52.364Z,7.37
2019-04-10T09:45:25.134Z,7.63
2019-04-10T09:48:00.658Z,7.70
2019-04-10T09:50:33.156Z,8.20
2019-04-10T09:53:10.716Z,8.27
2019-04-10T09:55:46.823Z,7.50
2019-04-10T09:58:27.569Z,8.50
2019-04-10T10:01:16.128Z,7.37
2019-04-10T10:04:01.243Z,7.50
2019-04-10T10:06:36.286Z,7.77
2019-04-10T10:09:08.263Z,7.50
2019-04-10T10:11:46.924Z,7.60
2019-04-10T10:14:18.835Z,7.10
2019-04-10T10:19:53.528Z,8.13
2019-04-10T10:22:25.183Z,8.47
2019-04-10T10:25:03.020Z,7.50
2019-04-10T10:27:36.831Z,7.47
2019-04-10T10:30:07.481Z,7.40
2019-04-10T10:33:01.402Z,7.40
2019-04-10T10:38:36.998Z,8.07
2019-04-10T10:41:15.140Z,8.50
2019-04-10T10:44:09.404Z,7.50
2019-04-10T10:46:42.241Z,7.40
2019-04-10T10:49:12.651Z,8.03
2019-04-10T10:51:48.683Z,8.40
2019-04-10T10:54:36.971Z,8.43
2019-04-10T10:57:07.309Z,7.60
2019-04-10T11:02:37.974Z,9.40
2019-04-10T11:08:09.258Z,7.00
2019-04-10T11:10:49.133Z,7.50
2019-04-10T11:13:26.579Z,7.97
2019-04-10T11:16:14.441Z,7.63
2019-04-10T11:21:28.610Z,6.60
2019-04-10T11:24:02.959Z,6.87
2019-04-10T11:26:36.181Z,7.13
2019-04-10T11:29:09.999Z,6.67
2019-04-10T11:31:41.733Z,5.87
2019-04-10T11:42:42.921Z,7.03
2019-04-10T11:45:17.020Z,8.53
2019-04-10T11:48:02.296Z,6.40
2019-04-10T11:50:34.663Z,6.37
2019-04-10T11:56:08.754Z,7.13
2019-04-10T11:58:51.262Z,6.90
2019-04-10T12:01:30.669Z,7.03
2019-04-10T12:12:21.668Z,7.13
2019-04-10T12:15:10.104Z,6.73
2019-04-10T12:17:47.637Z,6.83
2019-04-10T12:20:25.809Z,6.83
2019-04-10T12:23:05.040Z,6.77
2019-04-10T12:25:39.857Z,6.57
2019-04-10T12:28:11.695Z,6.93
2019-04-10T12:30:51.284Z,6.93
2019-04-10T12:33:54.851Z,7.07
2019-04-10T12:36:22.896Z,7.57
2019-04-10T12:38:56.225Z,7.00
2019-04-10T12:41:26.177Z,6.90
2019-04-10T12:44:07.456Z,6.90
2019-04-10T12:46:43.562Z,6.30
2019-04-10T12:49:31.750Z,7.40
2019-04-10T12:52:20.722Z,6.70
2019-04-10T12:54:57.707Z,8.33
2019-04-10T12:57:35.344Z,6.97
2019-04-10T13:00:13.852Z,7.10
2019-04-10T13:05:57.765Z,7.83
2019-04-10T13:08:52.546Z,7.10
2019-04-10T13:11:12.142Z,6.17
2019-04-10T13:13:42.465Z,6.20
2019-04-10T13:16:14.124Z,6.90
2019-04-10T13:18:46.828Z,7.17
2019-04-10T13:21:22.158Z,6.63
2019-04-10T13:23:50.625Z,6.10
2019-04-10T13:26:19.038Z,6.67
2019-04-10T13:28:49.790Z,6.70
2019-04-10T13:31:21.477Z,7.20
2019-04-10T13:33:50.987Z,7.53
2019-04-10T13:36:19.757Z,6.43
2019-04-10T13:38:50.603Z,6.87
2019-04-10T13:41:20.744Z,6.33
2019-04-10T13:43:49.870Z,7.37
2019-04-10T13:46:20.519Z,6.60
2019-04-10T13:48:50.893Z,7.37
2019-04-10T13:51:21.352Z,8.03
2019-04-10T13:53:52.339Z,6.70
2019-04-10T13:56:25.277Z,6.97
2019-04-10T13:58:56.601Z,6.53
2019-04-10T14:01:36.256Z,6.47
2019-04-10T14:04:07.621Z,6.23
2019-04-10T14:06:38.955Z,6.33
2019-04-10T14:09:28.762Z,5.70
2019-04-10T14:11:43.764Z,6.20
2019-04-10T14:14:16.150Z,6.67
2019-04-10T14:16:46.755Z,6.40
2019-04-10T14:19:17.252Z,6.60
2019-04-10T14:21:47.123Z,6.60
2019-04-10T14:24:21.966Z,7.93
2019-04-10T14:26:55.189Z,6.13
2019-04-10T14:29:24.765Z,6.03
2019-04-10T14:32:02.843Z,7.83
2019-04-10T14:34:31.594Z,6.00
2019-04-10T14:37:08.078Z,6.73
2019-04-10T14:39:38.245Z,6.37
2019-04-10T14:42:08.705Z,6.20
2019-04-10T14:44:38.928Z,6.20
2019-04-10T14:47:08.494Z,6.20
2019-04-10T14:49:37.569Z,6.40
2019-04-10T14:52:08.727Z,6.90
2019-04-10T14:54:40.187Z,6.50
2019-04-10T14:57:16.902Z,6.30
2019-04-10T14:59:46.321Z,6.43
2019-04-10T15:02:17.393Z,6.23
2019-04-10T15:04:46.236Z,6.30
2019-04-10T15:07:16.259Z,5.93
2019-04-10T15:09:45.996Z,6.23
2019-04-10T15:12:17.101Z,6.50
2019-04-10T15:14:45.916Z,6.33
2019-04-10T15:17:16.867Z,6.53
2019-04-10T15:19:46.846Z,6.17
2019-04-10T15:22:15.705Z,5.60
2019-04-10T15:24:57.507Z,6.50
2019-04-10T15:27:27.097Z,5.87
2019-04-10T15:29:57.456Z,6.23
2019-04-10T15:32:34.187Z,6.70
2019-04-10T15:35:04.239Z,5.40
2019-04-10T15:37:35.121Z,7.30
2019-04-10T15:40:18.135Z,5.20
2019-04-10T15:42:38.712Z,6.47
2019-04-10T15:45:16.959Z,6.50
2019-04-10T15:47:52.585Z,6.07
2019-04-10T15:50:22.027Z,6.20
2019-04-10T15:52:52.097Z,5.73
2019-04-10T15:55:21.664Z,5.47
2019-04-10T15:57:56.839Z,6.10
2019-04-10T16:00:23.568Z,6.17
2019-04-10T16:02:55.655Z,5.97
2019-04-10T16:05:31.467Z,6.00
2019-04-10T16:08:03.714Z,6.30
2019-04-10T16:10:34.771Z,5.87
2019-04-10T16:13:06.025Z,5.97
2019-04-10T16:15:36.755Z,5.53
2019-04-10T16:18:13.700Z,6.30
2019-04-10T16:20:47.313Z,5.80
2019-04-10T16:23:24.105Z,4.73
2019-04-10T16:25:54.590Z,6.20
2019-04-10T16:28:25.742Z,5.67
2019-04-10T16:30:59.297Z,5.40
2019-04-10T16:33:31.421Z,6.00
2019-04-10T16:36:00.962Z,5.83
2019-04-10T16:38:40.580Z,5.30
2019-04-10T16:41:12.201Z,5.70
2019-04-10T16:43:50.749Z,5.67
2019-04-10T16:46:21.850Z,5.77
2019-04-10T16:48:52.557Z,5.17
2019-04-10T16:54:20.472Z,5.63
2019-04-10T16:56:52.051Z,5.10
2019-04-10T17:02:17.712Z,5.20
2019-04-10T17:07:48.007Z,5.87
2019-04-10T17:10:40.659Z,5.57
2019-04-10T17:13:12.248Z,5.33
2019-04-10T17:16:10.470Z,5.10
2019-04-10T17:18:45.924Z,5.00
2019-04-10T17:21:15.160Z,5.90
2019-04-10T17:23:56.691Z,5.70
2019-04-10T17:26:26.697Z,5.60
2019-04-10T17:28:55.098Z,5.50
2019-04-10T17:31:24.615Z,5.23
2019-04-10T17:33:54.341Z,4.97
2019-04-10T17:36:25.800Z,5.20
2019-04-10T17:38:55.287Z,5.40
2019-04-10T17:41:25.925Z,5.40
2019-04-10T17:43:54.615Z,5.37
2019-04-10T17:46:28.248Z,14.67
2019-04-10T17:48:54.025Z,11.60
2019-04-10T17:51:41.861Z,8.87
2019-04-10T17:57:06.757Z,22.97
2019-04-10T18:00:03.403Z,16.80
2019-04-10T18:02:39.451Z,16.70
2019-04-10T18:05:08.540Z,18.03
2019-04-10T18:07:38.431Z,12.00
2019-04-10T18:10:08.467Z,10.60
2019-04-10T18:12:52.333Z,9.57
2019-04-10T18:15:24.151Z,8.30
2019-04-10T18:17:59.693Z,10.73
2019-04-10T18:23:11.361Z,7.30
2019-04-10T18:25:42.351Z,9.23
2019-04-10T18:28:21.359Z,8.73
2019-04-10T18:34:01.424Z,7.67
2019-04-10T18:36:58.724Z,8.57
2019-04-10T18:39:38.858Z,8.97
2019-04-10T18:42:14.704Z,11.80
2019-04-10T18:44:47.143Z,12.17
2019-04-10T18:47:20.691Z,8.27
2019-04-10T18:49:51.755Z,8.10
2019-04-10T18:52:26.131Z,8.03
2019-04-10T18:54:58.504Z,7.60
2019-04-10T18:57:32.761Z,7.63
2019-04-10T19:00:18.948Z,7.80
2019-04-10T19:03:28.127Z,7.77
2019-04-10T19:06:01.092Z,7.80
2019-04-10T19:08:32.184Z,7.60
2019-04-10T19:11:14.804Z,7.57
2019-04-10T19:13:36.961Z,7.27
2019-04-10T19:16:05.565Z,7.60
2019-04-10T19:18:35.580Z,7.80
2019-04-10T19:21:07.108Z,7.47
2019-04-10T19:23:39.345Z,7.60
2019-04-10T19:26:18.912Z,7.37
2019-04-10T19:31:56.301Z,7.07
2019-04-10T19:37:30.780Z,6.80
2019-04-10T19:40:05.024Z,6.93
2019-04-10T19:42:35.581Z,6.93
2019-04-10T19:45:17.413Z,8.47
2019-04-10T19:47:48.485Z,6.40
2019-04-10T19:50:24.092Z,6.53
2019-04-10T19:52:57.003Z,7.43
2019-04-10T19:55:29.511Z,8.33
2019-04-10T19:57:57.537Z,7.57
2019-04-10T20:00:34.685Z,6.80
2019-04-10T20:03:05.719Z,6.83
2019-04-10T20:05:37.155Z,6.37
2019-04-10T20:08:09.315Z,6.43
2019-04-10T20:10:41.506Z,6.70
2019-04-10T20:13:14.437Z,5.80
2019-04-10T20:15:46.750Z,6.30
2019-04-10T20:18:29.725Z,6.13
2019-04-10T20:21:01.840Z,5.73
2019-04-10T20:23:34.737Z,6.40
2019-04-10T20:26:05.331Z,5.70
2019-04-10T20:28:47.742Z,6.03
2019-04-10T20:31:18.036Z,5.70
2019-04-10T20:33:49.479Z,5.67
2019-04-10T20:36:18.156Z,5.77
2019-04-10T20:38:56.587Z,5.77
2019-04-10T20:41:44.817Z,6.07
2019-04-10T20:44:05.764Z,5.70
2019-04-10T20:46:38.283Z,6.07
2019-04-10T20:49:14.090Z,6.63
2019-04-10T20:51:44.362Z,5.53
2019-04-10T20:54:14.850Z,6.00
2019-04-10T20:56:44.453Z,5.50
2019-04-10T20:59:17.518Z,5.50
2019-04-10T21:01:49.074Z,5.90
2019-04-10T21:04:21.320Z,5.40
2019-04-10T21:06:52.505Z,5.57
2019-04-10T21:09:27.808Z,5.37
2019-04-10T21:12:09.564Z,6.40
2019-04-10T21:14:33.799Z,5.20
2019-04-10T21:17:04.864Z,5.03
2019-04-10T21:19:45.577Z,4.80
2019-04-10T21:22:17.006Z,4.60
2019-04-10T21:24:52.085Z,6.10
2019-04-10T21:27:25.820Z,5.07
2019-04-10T21:30:17.781Z,5.27
2019-04-10T21:33:00.548Z,5.10
2019-04-10T21:35:42.109Z,5.63
2019-04-10T21:38:13.065Z,5.40
2019-04-10T21:40:43.308Z,5.13
2019-04-10T21:43:12.930Z,5.03
2019-04-10T21:45:43.488Z,6.93
2019-04-10T21:48:15.361Z,5.67
2019-04-10T21:50:46.704Z,5.97
2019-04-10T21:53:19.941Z,7.10
2019-04-10T21:55:48.684Z,5.33
2019-04-10T21:58:19.912Z,5.77
2019-04-10T22:00:54.524Z,5.27
2019-04-10T22:03:25.335Z,4.83
2019-04-10T22:06:11.671Z,5.40
2019-04-10T22:09:01.885Z,5.23
2019-04-10T22:11:37.069Z,5.47
2019-04-10T22:14:08.748Z,5.70
2019-04-10T22:16:38.582Z,5.47
2019-04-10T22:19:08.745Z,5.33
2019-04-10T22:21:38.377Z,4.53
2019-04-10T22:24:10.110Z,5.13
2019-04-10T22:26:42.393Z,5.10
2019-04-10T22:29:14.153Z,5.30
2019-04-10T22:31:45.776Z,5.10
2019-04-10T22:34:17.109Z,5.20
2019-04-10T22:36:53.426Z,5.30
2019-04-10T22:39:25.655Z,5.20
2019-04-10T22:41:57.340Z,5.43
2019-04-10T22:44:36.689Z,5.03
2019-04-10T22:47:05.086Z,4.50
2019-04-10T22:49:35.462Z,4.80
2019-04-10T22:54:51.459Z,5.37
2019-04-10T22:57:21.197Z,4.80
2019-04-10T22:59:51.227Z,5.17
2019-04-10T23:02:21.478Z,4.90
2019-04-10T23:04:49.927Z,4.80
2019-04-10T23:07:21.952Z,4.57
2019-04-10T23:09:52.757Z,5.10
2019-04-10T23:12:24.467Z,5.17
2019-04-10T23:14:55.370Z,4.93
2019-04-10T23:17:26.498Z,4.37
2019-04-10T23:19:55.655Z,5.30
2019-04-10T23:22:27.399Z,5.20
2019-04-10T23:25:00.062Z,5.23
2019-04-10T23:27:36.291Z,5.70
2019-04-10T23:30:10.682Z,4.87
2019-04-10T23:32:39.600Z,5.20
2019-04-10T23:35:11.648Z,5.30
2019-04-10T23:37:46.906Z,5.03
2019-04-10T23:40:16.985Z,4.47
2019-04-10T23:42:48.492Z,5.30
2019-04-10T23:45:19.718Z,4.30
2019-04-10T23:48:01.454Z,4.97
2019-04-10T23:50:34.416Z,4.93
2019-04-10T23:53:04.519Z,4.73
2019-04-10T23:55:39.885Z,5.10
2019-04-10T23:58:09.608Z,4.90
